createdAt,value
2023-04-30T00:00:53.123Z,393.33
2023-04-30T00:01:55.226Z,285.63
2023-04-30T00:03:00.056Z,419.77
2023-04-30T00:04:02.262Z,287.10
2023-04-30T00:05:07.498Z,404.92
2023-04-30T00:06:09.714Z,399.80
2023-04-30T00:07:14.644Z,488.95
2023-04-30T00:08:16.801Z,495.05
2023-04-30T00:09:22.110Z,476.27
2023-04-30T00:10:24.705Z,361.52
2023-04-30T00:11:31.968Z,485.85
2023-04-30T00:12:34.106Z,399.98
2023-04-30T00:13:38.860Z,390.23
2023-04-30T00:14:40.959Z,432.42
2023-04-30T00:15:45.623Z,403.63
2023-04-30T00:16:47.698Z,473.83
2023-04-30T00:17:53.610Z,417.30
2023-04-30T00:18:55.672Z,374.25
2023-04-30T00:20:00.376Z,405.20
2023-04-30T00:21:02.495Z,417.63
2023-04-30T00:22:07.266Z,402.85
2023-04-30T00:23:09.314Z,415.88
2023-04-30T00:24:14.144Z,399.63
2023-04-30T00:25:17.136Z,365.90
2023-04-30T00:26:21.860Z,323.10
2023-04-30T00:27:26.827Z,453.13
2023-04-30T00:28:31.533Z,444.80
2023-04-30T00:29:33.602Z,396.42
2023-04-30T00:30:38.309Z,378.42
2023-04-30T00:31:40.716Z,367.45
2023-04-30T00:32:46.113Z,370.20
2023-04-30T00:33:48.216Z,319.50
2023-04-30T00:34:53.044Z,248.43
2023-04-30T00:35:55.272Z,262.10
2023-04-30T00:36:59.883Z,275.38
2023-04-30T00:38:01.991Z,364.02
2023-04-30T00:39:06.843Z,342.17
2023-04-30T00:40:10.266Z,397.70
2023-04-30T00:41:15.136Z,282.75
2023-04-30T00:42:17.189Z,425.42
2023-04-30T00:43:24.503Z,421.60
2023-04-30T00:44:26.734Z,412.38
2023-04-30T00:45:31.460Z,397.25
2023-04-30T00:46:33.554Z,428.40
2023-04-30T00:47:38.604Z,381.80
2023-04-30T00:48:40.731Z,365.30
2023-04-30T00:49:45.513Z,748.30
2023-04-30T00:50:47.638Z,370.98
2023-04-30T00:51:52.952Z,369.15
2023-04-30T00:52:55.807Z,465.55
2023-04-30T00:54:03.499Z,418.17
2023-04-30T00:55:06.966Z,380.30
2023-04-30T00:56:12.798Z,346.98
2023-04-30T00:57:15.937Z,554.08
2023-04-30T00:58:20.572Z,427.23
2023-04-30T00:59:25.423Z,474.75
2023-04-30T01:00:30.445Z,438.05
2023-04-30T01:01:32.738Z,417.15
2023-04-30T01:02:37.556Z,380.05
2023-04-30T01:03:40.022Z,472.20
2023-04-30T01:04:44.727Z,379.20
2023-04-30T01:05:46.762Z,379.48
2023-04-30T01:06:52.237Z,400.15
2023-04-30T01:07:55.616Z,383.77
2023-04-30T01:09:01.408Z,405.02
2023-04-30T01:10:03.954Z,326.80
2023-04-30T01:11:20.148Z,400.02
2023-04-30T01:12:29.887Z,365.83
2023-04-30T01:13:42.319Z,436.10
2023-04-30T01:14:57.235Z,256.73
2023-04-30T01:16:08.473Z,338.60
2023-04-30T01:17:28.676Z,374.67
2023-04-30T01:18:42.041Z,447.98
2023-04-30T01:19:46.274Z,362.83
2023-04-30T01:20:53.262Z,382.48
2023-04-30T01:21:58.476Z,376.17
2023-04-30T01:23:12.258Z,416.60
2023-04-30T01:24:32.757Z,372.85
2023-04-30T01:25:47.214Z,428.40
2023-04-30T01:26:59.779Z,695.70
2023-04-30T01:28:19.463Z,390.67
2023-04-30T01:29:22.442Z,375.55
2023-04-30T01:30:28.218Z,338.58
2023-04-30T01:31:30.340Z,459.55
2023-04-30T01:32:35.217Z,358.25
2023-04-30T01:33:37.318Z,412.70
2023-04-30T01:34:42.065Z,365.52
2023-04-30T01:36:04.917Z,363.75
2023-04-30T01:37:19.157Z,389.27
2023-04-30T01:38:34.106Z,423.90
2023-04-30T01:40:05.245Z,372.63
2023-04-30T01:41:14.651Z,357.23
2023-04-30T01:42:24.051Z,397.05
2023-04-30T01:43:37.404Z,438.42
2023-04-30T01:44:50.270Z,393.85
2023-04-30T01:46:03.369Z,389.65
2023-04-30T01:47:21.902Z,308.48
2023-04-30T01:48:33.354Z,566.10
2023-04-30T01:49:53.636Z,361.10
2023-04-30T01:51:06.146Z,453.88
2023-04-30T01:52:18.073Z,401.38
2023-04-30T01:53:32.659Z,472.92
2023-04-30T01:54:44.051Z,429.33
2023-04-30T01:55:53.962Z,433.67
2023-04-30T01:57:04.454Z,423.60
2023-04-30T01:58:12.348Z,323.02
2023-04-30T01:59:18.044Z,366.67
2023-04-30T02:00:22.862Z,492.63
2023-04-30T02:01:29.371Z,501.13
2023-04-30T02:02:34.644Z,333.42
2023-04-30T02:03:36.883Z,436.90
2023-04-30T02:04:41.785Z,419.88
2023-04-30T02:05:43.889Z,451.83
2023-04-30T02:06:48.536Z,460.25
2023-04-30T02:07:52.055Z,281.35
2023-04-30T02:08:56.923Z,458.10
2023-04-30T02:09:59.167Z,413.00
2023-04-30T02:11:04.933Z,421.67
2023-04-30T02:12:07.793Z,443.58
2023-04-30T02:13:12.446Z,427.92
2023-04-30T02:14:17.225Z,306.75
2023-04-30T02:15:22.164Z,460.60
2023-04-30T02:16:24.528Z,475.15
2023-04-30T02:17:29.348Z,403.20
2023-04-30T02:18:31.520Z,433.27
2023-04-30T02:19:36.142Z,296.15
2023-04-30T02:20:38.212Z,427.60
2023-04-30T02:21:42.882Z,410.10
2023-04-30T02:22:44.991Z,419.73
2023-04-30T02:23:49.723Z,432.10
2023-04-30T02:24:53.881Z,411.45
2023-04-30T02:25:58.561Z,408.38
2023-04-30T02:27:01.438Z,356.92
2023-04-30T02:28:06.621Z,380.45
2023-04-30T02:29:08.815Z,457.33
2023-04-30T02:30:16.091Z,433.55
2023-04-30T02:31:18.228Z,425.33
2023-04-30T02:32:22.995Z,526.28
2023-04-30T02:33:25.220Z,435.98
2023-04-30T02:34:29.865Z,489.02
2023-04-30T02:35:32.020Z,532.65
2023-04-30T02:36:36.866Z,410.83
2023-04-30T02:37:39.022Z,479.08
2023-04-30T02:38:43.758Z,497.20
2023-04-30T02:39:46.056Z,390.63
2023-04-30T02:40:50.789Z,437.40
2023-04-30T02:41:52.850Z,480.65
2023-04-30T02:42:57.528Z,416.27
2023-04-30T02:43:59.725Z,367.83
2023-04-30T02:45:04.365Z,430.63
2023-04-30T02:46:09.172Z,385.23
2023-04-30T02:47:14.142Z,451.23
2023-04-30T02:48:16.378Z,422.38
2023-04-30T02:49:21.122Z,418.55
2023-04-30T02:50:25.840Z,511.95
2023-04-30T02:51:28.497Z,429.17
2023-04-30T02:52:33.192Z,395.63
2023-04-30T02:53:35.465Z,457.50
2023-04-30T02:54:40.294Z,442.67
2023-04-30T02:55:42.336Z,428.67
2023-04-30T02:56:47.116Z,445.55
2023-04-30T02:57:49.165Z,381.15
2023-04-30T02:58:54.153Z,503.45
2023-04-30T02:59:58.869Z,406.45
2023-04-30T03:01:01.024Z,460.70
2023-04-30T03:02:08.326Z,371.48
2023-04-30T03:03:10.621Z,437.27
2023-04-30T03:04:15.387Z,361.38
2023-04-30T03:05:17.666Z,408.20
2023-04-30T03:06:22.514Z,370.98
2023-04-30T03:07:24.631Z,412.13
2023-04-30T03:08:29.792Z,295.48
2023-04-30T03:09:32.395Z,406.95
2023-04-30T03:10:37.036Z,437.63
2023-04-30T03:11:39.127Z,391.60
2023-04-30T03:12:43.912Z,405.60
2023-04-30T03:13:46.511Z,388.52
2023-04-30T03:14:51.198Z,364.30
2023-04-30T03:15:58.440Z,374.48
2023-04-30T03:17:03.177Z,374.30
2023-04-30T03:18:07.890Z,368.63
2023-04-30T03:19:12.628Z,406.70
2023-04-30T03:20:14.989Z,243.57
2023-04-30T03:21:19.660Z,397.67
2023-04-30T03:22:23.992Z,352.60
2023-04-30T03:23:30.942Z,474.95
2023-04-30T03:24:33.241Z,427.52
2023-04-30T03:26:23.511Z,421.10
2023-04-30T03:27:25.592Z,471.77
2023-04-30T03:28:30.397Z,471.05
2023-04-30T03:29:32.515Z,443.38
2023-04-30T03:30:37.262Z,515.30
2023-04-30T03:31:39.404Z,451.15
2023-04-30T03:32:44.214Z,423.27
2023-04-30T03:33:48.957Z,393.50
2023-04-30T03:34:53.735Z,448.63
2023-04-30T03:35:55.928Z,323.20
2023-04-30T03:37:02.027Z,398.98
2023-04-30T03:38:04.351Z,505.05
2023-04-30T03:39:10.114Z,383.90
2023-04-30T03:40:13.324Z,417.75
2023-04-30T03:41:18.236Z,490.58
2023-04-30T03:42:20.470Z,428.38
2023-04-30T03:43:25.236Z,459.63
2023-04-30T03:44:27.348Z,490.00
2023-04-30T03:45:32.250Z,433.05
2023-04-30T03:46:34.385Z,407.15
2023-04-30T03:47:39.498Z,440.15
2023-04-30T03:48:41.561Z,388.95
2023-04-30T03:49:55.542Z,395.35
2023-04-30T03:50:58.077Z,496.15
2023-04-30T03:52:02.909Z,423.83
2023-04-30T03:53:04.958Z,417.45
2023-04-30T03:54:09.631Z,486.33
2023-04-30T03:55:12.107Z,393.08
2023-04-30T03:56:17.634Z,376.70
2023-04-30T03:57:20.152Z,474.52
2023-04-30T03:58:25.291Z,448.08
2023-04-30T03:59:27.431Z,419.55
2023-04-30T04:00:32.537Z,426.38
2023-04-30T04:01:34.683Z,445.05
2023-04-30T04:02:39.965Z,343.15
2023-04-30T04:03:42.142Z,438.60
2023-04-30T04:04:49.564Z,419.63
2023-04-30T04:05:51.710Z,500.52
2023-04-30T04:06:56.425Z,375.85
2023-04-30T04:07:58.500Z,463.23
2023-04-30T04:09:03.799Z,527.78
2023-04-30T04:10:07.292Z,366.13
2023-04-30T04:11:12.093Z,454.38
2023-04-30T04:12:14.143Z,470.98
2023-04-30T04:13:18.992Z,465.90
2023-04-30T04:14:21.111Z,494.13
2023-04-30T04:15:25.797Z,616.88
2023-04-30T04:16:27.942Z,409.05
2023-04-30T04:17:32.675Z,477.23
2023-04-30T04:18:34.866Z,598.33
2023-04-30T04:19:39.578Z,424.52
2023-04-30T04:20:44.227Z,451.55
2023-04-30T04:21:48.921Z,557.00
2023-04-30T04:22:51.218Z,412.83
2023-04-30T04:23:55.962Z,450.30
2023-04-30T04:24:58.631Z,520.50
2023-04-30T04:26:03.464Z,410.17
2023-04-30T04:27:05.880Z,431.10
2023-04-30T04:28:10.789Z,432.35
2023-04-30T04:29:12.898Z,356.98
2023-04-30T04:30:17.539Z,325.02
2023-04-30T04:31:20.597Z,470.10
2023-04-30T04:32:25.682Z,486.13
2023-04-30T04:33:28.074Z,503.10
2023-04-30T04:34:32.854Z,549.85
2023-04-30T04:35:34.952Z,425.25
2023-04-30T04:36:42.231Z,396.27
2023-04-30T04:38:23.089Z,432.73
2023-04-30T04:39:25.340Z,602.35
2023-04-30T04:40:31.716Z,525.72
2023-04-30T04:41:35.289Z,492.48
2023-04-30T04:42:40.311Z,591.97
2023-04-30T04:43:42.665Z,540.28
2023-04-30T04:44:47.371Z,563.97
2023-04-30T04:45:49.494Z,665.35
2023-04-30T04:46:54.932Z,622.47
2023-04-30T04:47:57.144Z,504.85
2023-04-30T04:49:02.224Z,622.53
2023-04-30T04:50:04.916Z,805.08
2023-04-30T04:51:09.556Z,579.40
2023-04-30T04:52:14.222Z,590.72
2023-04-30T04:53:18.905Z,588.55
2023-04-30T04:54:21.467Z,454.20
2023-04-30T04:55:26.239Z,639.15
2023-04-30T04:56:28.423Z,584.75
2023-04-30T04:57:33.250Z,599.50
2023-04-30T04:58:35.602Z,547.92
2023-04-30T04:59:40.502Z,556.05
2023-04-30T05:00:42.600Z,467.10
2023-04-30T05:01:47.670Z,515.97
2023-04-30T05:02:50.151Z,460.27
2023-04-30T05:03:55.112Z,531.13
2023-04-30T05:04:57.300Z,553.60
2023-04-30T05:06:02.054Z,555.55
2023-04-30T05:07:04.477Z,512.65
2023-04-30T05:08:11.732Z,498.63
2023-04-30T05:09:13.844Z,436.92
2023-04-30T05:10:18.810Z,385.95
2023-04-30T05:11:22.151Z,456.13
2023-04-30T05:12:26.899Z,606.05
2023-04-30T05:13:29.031Z,425.15
2023-04-30T05:16:23.820Z,416.92
2023-04-30T05:19:29.682Z,432.23
2023-04-30T05:20:31.813Z,414.52
2023-04-30T05:21:36.558Z,445.08
2023-04-30T05:22:39.162Z,428.88
2023-04-30T05:23:47.211Z,453.88
2023-04-30T05:24:49.584Z,425.65
2023-04-30T05:25:55.616Z,468.70
2023-04-30T05:26:57.665Z,392.85
2023-04-30T05:28:02.409Z,413.20
2023-04-30T05:29:04.532Z,379.73
2023-04-30T05:30:10.900Z,381.95
2023-04-30T05:31:13.140Z,307.63
2023-04-30T05:32:17.868Z,482.95
2023-04-30T05:33:19.921Z,329.85
2023-04-30T05:34:24.641Z,432.02
2023-04-30T05:35:26.790Z,486.35
2023-04-30T05:36:32.325Z,452.95
2023-04-30T05:37:36.966Z,523.45
2023-04-30T05:38:39.045Z,288.75
2023-04-30T05:39:46.329Z,354.50
2023-04-30T05:40:48.390Z,473.45
2023-04-30T05:41:53.550Z,428.55
2023-04-30T05:42:56.451Z,387.98
2023-04-30T05:44:03.056Z,485.10
2023-04-30T05:45:06.429Z,366.55
2023-04-30T05:46:11.138Z,404.45
2023-04-30T05:47:13.376Z,453.02
2023-04-30T05:50:40.218Z,439.88
2023-04-30T05:51:44.919Z,428.10
2023-04-30T05:52:46.970Z,314.63
2023-04-30T05:53:51.727Z,316.83
2023-04-30T05:54:56.372Z,469.10
2023-04-30T05:56:01.150Z,418.45
2023-04-30T05:57:03.248Z,406.98
2023-04-30T05:58:08.002Z,422.40
2023-04-30T05:59:10.129Z,329.63
2023-04-30T06:00:16.356Z,443.70
2023-04-30T06:01:19.522Z,425.25
2023-04-30T06:02:24.279Z,407.88
2023-04-30T06:03:26.485Z,533.97
2023-04-30T06:04:31.916Z,506.33
2023-04-30T06:05:34.074Z,410.60
2023-04-30T06:06:38.863Z,425.38
2023-04-30T06:07:41.006Z,417.45
2023-04-30T06:08:45.844Z,313.38
2023-04-30T06:10:37.137Z,263.63
2023-04-30T06:11:45.495Z,566.15
2023-04-30T06:12:47.572Z,462.25
2023-04-30T06:13:52.353Z,511.15
2023-04-30T06:14:54.533Z,336.55
2023-04-30T06:15:59.398Z,392.65
2023-04-30T06:17:01.535Z,365.08
2023-04-30T06:18:06.933Z,480.45
2023-04-30T06:19:09.098Z,479.52
2023-04-30T06:20:15.029Z,461.33
2023-04-30T06:21:17.087Z,425.98
2023-04-30T06:22:21.759Z,541.47
2023-04-30T06:23:23.783Z,495.90
2023-04-30T06:24:30.512Z,579.15
2023-04-30T06:25:32.670Z,485.40
2023-04-30T06:26:38.864Z,508.30
2023-04-30T06:27:46.408Z,403.88
2023-04-30T06:28:48.624Z,444.05
2023-04-30T06:29:53.473Z,401.77
2023-04-30T06:30:55.926Z,439.50
2023-04-30T06:32:00.820Z,491.33
2023-04-30T06:33:03.063Z,516.58
2023-04-30T06:34:07.848Z,433.35
2023-04-30T06:35:10.363Z,439.27
2023-04-30T06:36:15.066Z,456.85
2023-04-30T06:37:17.116Z,442.35
2023-04-30T06:38:21.913Z,414.55
2023-04-30T06:39:23.967Z,529.67
2023-04-30T06:40:28.687Z,518.58
2023-04-30T06:41:30.809Z,495.80
2023-04-30T06:42:36.129Z,507.67
2023-04-30T06:43:40.886Z,585.60
2023-04-30T06:44:45.904Z,447.05
2023-04-30T06:45:48.130Z,494.83
2023-04-30T06:46:52.861Z,406.52
2023-04-30T06:47:57.856Z,411.15
2023-04-30T06:48:59.959Z,459.00
2023-04-30T06:50:04.721Z,433.33
2023-04-30T06:51:10.569Z,365.00
2023-04-30T06:52:13.081Z,450.85
2023-04-30T06:53:18.112Z,388.40
2023-04-30T06:54:22.905Z,385.15
2023-04-30T06:55:28.322Z,503.90
2023-04-30T06:56:30.947Z,487.00
2023-04-30T06:57:37.461Z,480.73
2023-04-30T06:58:42.801Z,358.60
2023-04-30T06:59:48.058Z,369.23
2023-04-30T07:00:50.134Z,395.88
2023-04-30T07:01:54.970Z,366.85
2023-04-30T07:02:57.491Z,412.48
2023-04-30T07:04:02.320Z,493.90
2023-04-30T07:05:04.712Z,395.70
2023-04-30T07:06:09.555Z,372.00
2023-04-30T07:07:11.827Z,279.58
2023-04-30T07:08:16.474Z,378.52
2023-04-30T07:09:18.610Z,371.77
2023-04-30T07:10:35.749Z,236.82
2023-04-30T07:11:38.011Z,438.48
2023-04-30T07:12:42.702Z,433.20
2023-04-30T07:13:47.463Z,378.42
2023-04-30T07:14:52.199Z,403.98
2023-04-30T07:15:55.228Z,406.38
2023-04-30T07:17:00.016Z,420.80
2023-04-30T07:18:04.258Z,424.85
2023-04-30T07:19:09.106Z,422.67
2023-04-30T07:20:14.745Z,390.52
2023-04-30T07:21:19.533Z,394.13
2023-04-30T07:22:21.839Z,393.13
2023-04-30T07:23:27.850Z,410.10
2023-04-30T07:24:30.615Z,461.95
2023-04-30T07:25:35.365Z,477.80
2023-04-30T07:26:37.491Z,432.23
2023-04-30T07:28:18.099Z,410.88
2023-04-30T07:29:22.912Z,357.83
2023-04-30T07:30:27.686Z,495.15
2023-04-30T07:31:30.158Z,332.85
2023-04-30T07:32:35.167Z,439.90
2023-04-30T07:33:39.993Z,490.23
2023-04-30T07:34:42.254Z,388.52
2023-04-30T07:35:46.926Z,394.25
2023-04-30T07:36:49.076Z,419.92
2023-04-30T07:37:53.786Z,372.83
2023-04-30T07:38:55.943Z,473.10
2023-04-30T07:40:01.128Z,382.38
2023-04-30T07:41:03.263Z,331.80
2023-04-30T07:42:08.182Z,398.88
2023-04-30T07:43:10.289Z,374.15
2023-04-30T07:44:14.975Z,330.88
2023-04-30T07:45:19.702Z,355.45
2023-04-30T07:46:25.325Z,257.35
2023-04-30T07:47:27.436Z,363.83
2023-04-30T07:48:32.106Z,505.73
2023-04-30T07:49:34.276Z,490.92
2023-04-30T07:50:39.296Z,468.95
2023-04-30T07:51:42.628Z,511.60
2023-04-30T07:52:47.408Z,388.55
2023-04-30T07:53:49.544Z,399.08
2023-04-30T07:54:54.359Z,429.88
2023-04-30T07:55:56.596Z,466.08
2023-04-30T07:57:01.264Z,422.92
2023-04-30T07:58:04.213Z,451.80
2023-04-30T07:59:08.934Z,451.23
2023-04-30T08:00:12.456Z,472.77
2023-04-30T08:01:19.821Z,460.10
2023-04-30T08:02:22.345Z,396.15
2023-04-30T08:03:27.395Z,500.52
2023-04-30T08:04:29.607Z,499.00
2023-04-30T08:05:34.322Z,559.10
2023-04-30T08:06:36.479Z,613.10
2023-04-30T08:07:41.853Z,578.95
2023-04-30T08:08:47.753Z,476.42
2023-04-30T08:09:50.836Z,326.13
2023-04-30T08:10:55.557Z,449.52
2023-04-30T08:11:57.642Z,577.40
2023-04-30T08:13:02.326Z,483.58
2023-04-30T08:14:07.244Z,496.40
2023-04-30T08:15:53.858Z,464.95
2023-04-30T08:17:14.196Z,134.00
2023-04-30T08:18:16.523Z,602.90
2023-04-30T08:19:21.216Z,535.03
2023-04-30T08:20:23.875Z,748.22
2023-04-30T08:21:28.633Z,772.70
2023-04-30T08:22:31.002Z,945.13
2023-04-30T08:23:36.302Z,1052.78
2023-04-30T08:24:41.172Z,990.65
2023-04-30T08:25:43.237Z,1091.88
2023-04-30T08:26:47.893Z,849.95
2023-04-30T08:27:49.964Z,1206.10
2023-04-30T08:28:54.650Z,1239.57
2023-04-30T08:29:56.961Z,1272.80
2023-04-30T08:31:01.812Z,1112.55
2023-04-30T08:32:04.414Z,938.58
2023-04-30T08:33:12.056Z,1033.55
2023-04-30T08:34:14.181Z,1064.05
2023-04-30T08:35:19.790Z,1093.35
2023-04-30T08:36:21.875Z,910.22
2023-04-30T08:37:26.578Z,975.78
2023-04-30T08:38:29.258Z,1105.60
2023-04-30T08:39:34.068Z,892.50
2023-04-30T08:40:51.100Z,1229.53
2023-04-30T08:41:59.677Z,1132.57
2023-04-30T08:43:06.326Z,1195.57
2023-04-30T08:44:14.163Z,1181.15
2023-04-30T08:45:16.520Z,1220.03
2023-04-30T08:46:24.534Z,1234.90
2023-04-30T08:47:27.392Z,1256.53
2023-04-30T08:48:35.113Z,1356.60
2023-04-30T08:49:40.086Z,1340.80
2023-04-30T08:50:42.792Z,1265.88
2023-04-30T08:51:48.410Z,1146.28
2023-04-30T08:52:50.504Z,1332.80
2023-04-30T08:53:58.413Z,1229.70
2023-04-30T08:55:02.131Z,1220.97
2023-04-30T08:56:07.409Z,1427.05
2023-04-30T08:57:09.801Z,1206.05
2023-04-30T08:58:15.177Z,1182.45
2023-04-30T08:59:19.812Z,1256.35
2023-04-30T09:00:24.868Z,1073.80
2023-04-30T09:01:31.128Z,1062.80
2023-04-30T09:02:33.782Z,1263.93
2023-04-30T09:03:41.301Z,1251.47
2023-04-30T09:04:43.461Z,1198.72
2023-04-30T09:05:48.304Z,1313.70
2023-04-30T09:06:53.278Z,1213.45
2023-04-30T09:08:03.549Z,1209.97
2023-04-30T09:09:22.076Z,1077.32
2023-04-30T09:10:24.535Z,1155.55
2023-04-30T09:11:34.049Z,1153.05
2023-04-30T09:12:37.356Z,1217.10
2023-04-30T09:13:44.116Z,1279.32
2023-04-30T09:15:02.419Z,1092.65
2023-04-30T09:16:05.147Z,1251.82
2023-04-30T09:17:11.561Z,1164.72
2023-04-30T09:18:17.788Z,1276.43
2023-04-30T09:19:32.429Z,1068.50
2023-04-30T09:20:35.050Z,1236.85
2023-04-30T09:21:47.276Z,1110.03
2023-04-30T09:23:05.318Z,1209.28
2023-04-30T09:24:10.508Z,1275.22
2023-04-30T09:25:12.779Z,1289.38
2023-04-30T09:26:24.147Z,1254.55
2023-04-30T09:27:28.843Z,922.75
2023-04-30T09:28:31.977Z,1020.88
2023-04-30T09:29:39.931Z,1007.90
2023-04-30T09:30:45.213Z,1140.50
2023-04-30T09:31:47.990Z,1145.28
2023-04-30T09:32:58.214Z,1212.20
2023-04-30T09:34:02.930Z,1241.18
2023-04-30T09:35:31.276Z,1135.97
2023-04-30T09:36:37.000Z,1268.25
2023-04-30T09:37:39.507Z,1327.88
2023-04-30T09:38:44.993Z,1257.75
2023-04-30T09:39:48.891Z,1153.82
2023-04-30T09:40:53.722Z,1267.43
2023-04-30T09:42:07.710Z,1266.07
2023-04-30T09:43:13.074Z,1282.40
2023-04-30T09:44:30.854Z,1317.88
2023-04-30T09:45:47.664Z,1401.43
2023-04-30T09:46:51.130Z,1157.32
2023-04-30T09:48:05.690Z,1184.68
2023-04-30T09:49:22.600Z,1311.90
2023-04-30T09:50:43.205Z,1230.35
2023-04-30T09:51:56.887Z,1343.30
2023-04-30T09:53:07.576Z,1338.63
2023-04-30T09:54:14.641Z,1210.78
2023-04-30T09:55:17.004Z,1195.20
2023-04-30T09:56:26.310Z,1276.05
2023-04-30T09:57:32.027Z,1229.47
2023-04-30T09:58:40.097Z,1307.28
2023-04-30T09:59:48.023Z,1344.93
2023-04-30T10:00:53.216Z,1259.70
2023-04-30T10:01:59.381Z,1252.45
2023-04-30T10:03:06.290Z,1243.47
2023-04-30T10:04:11.359Z,1361.13
2023-04-30T10:05:16.491Z,1354.82
2023-04-30T10:06:22.293Z,1340.22
2023-04-30T10:07:32.397Z,1357.43
2023-04-30T10:08:40.292Z,1262.28
2023-04-30T10:09:51.130Z,1280.40
2023-04-30T10:10:59.927Z,1011.70
2023-04-30T10:12:07.970Z,1300.20
2023-04-30T10:13:40.631Z,1341.97
2023-04-30T10:14:51.021Z,1244.10
2023-04-30T10:16:00.527Z,1290.57
2023-04-30T10:17:11.588Z,1296.38
2023-04-30T10:18:18.435Z,1250.43
2023-04-30T10:19:26.175Z,1124.32
2023-04-30T10:20:38.738Z,1169.65
2023-04-30T10:21:48.424Z,1166.90
2023-04-30T10:22:50.734Z,1178.40
2023-04-30T10:23:57.408Z,1181.53
2023-04-30T10:25:04.304Z,1176.88
2023-04-30T10:26:42.778Z,929.67
2023-04-30T10:27:45.792Z,1241.10
2023-04-30T10:28:53.795Z,1165.05
2023-04-30T10:29:56.582Z,1202.88
2023-04-30T10:31:02.042Z,1213.25
2023-04-30T10:32:05.485Z,1223.72
2023-04-30T10:33:20.105Z,1360.13
2023-04-30T10:34:34.921Z,1256.63
2023-04-30T10:35:45.692Z,1378.30
2023-04-30T10:36:59.366Z,1202.57
2023-04-30T10:39:48.035Z,965.53
2023-04-30T10:40:50.193Z,1164.93
2023-04-30T10:41:55.012Z,1176.78
2023-04-30T10:42:57.086Z,1179.72
2023-04-30T10:44:05.573Z,1203.53
2023-04-30T10:45:11.234Z,1201.22
2023-04-30T10:46:25.186Z,1177.95
2023-04-30T10:47:32.494Z,1176.70
2023-04-30T10:48:36.142Z,1277.55
2023-04-30T10:49:43.375Z,1251.97
2023-04-30T10:50:46.787Z,1303.45
2023-04-30T10:51:55.267Z,1223.50
2023-04-30T10:53:03.465Z,1240.15
2023-04-30T10:54:08.139Z,1320.78
2023-04-30T10:55:10.812Z,1299.28
2023-04-30T10:56:15.492Z,1111.78
2023-04-30T10:57:20.280Z,1235.03
2023-04-30T10:58:34.654Z,1206.47
2023-04-30T10:59:39.842Z,1267.50
2023-04-30T11:00:51.934Z,1234.65
2023-04-30T11:02:01.724Z,1207.10
2023-04-30T11:03:04.709Z,1185.07
2023-04-30T11:04:11.262Z,1181.28
2023-04-30T11:05:15.042Z,1275.82
2023-04-30T11:06:21.934Z,1294.95
2023-04-30T11:07:29.174Z,1294.00
2023-04-30T11:08:38.013Z,1260.60
2023-04-30T11:09:45.653Z,1307.40
2023-04-30T11:10:58.946Z,1378.78
2023-04-30T11:12:05.974Z,1181.55
2023-04-30T11:13:11.350Z,1207.60
2023-04-30T11:14:20.249Z,1245.80
2023-04-30T11:15:29.055Z,1325.53
2023-04-30T11:16:31.838Z,1328.22
2023-04-30T11:17:37.484Z,1281.35
2023-04-30T11:18:47.679Z,1259.05
2023-04-30T11:19:51.584Z,1300.35
2023-04-30T11:20:56.498Z,1295.97
2023-04-30T11:22:17.082Z,1242.20
2023-04-30T11:23:38.371Z,1325.28
2023-04-30T11:24:57.126Z,1222.85
2023-04-30T11:26:01.700Z,1297.28
2023-04-30T11:27:06.693Z,1279.78
2023-04-30T11:28:16.785Z,1256.90
2023-04-30T11:29:19.574Z,1381.60
2023-04-30T11:30:25.271Z,1281.13
2023-04-30T11:31:34.053Z,1328.78
2023-04-30T11:32:40.481Z,1417.70
2023-04-30T11:33:45.160Z,1400.60
2023-04-30T11:34:48.139Z,1384.55
2023-04-30T11:35:54.545Z,1262.25
2023-04-30T11:36:59.664Z,1262.75
2023-04-30T11:38:05.223Z,1249.05
2023-04-30T11:39:12.193Z,1160.28
2023-04-30T11:40:17.960Z,1183.80
2023-04-30T11:41:27.664Z,1128.10
2023-04-30T11:42:30.900Z,1155.32
2023-04-30T11:43:37.323Z,1188.72
2023-04-30T11:44:39.477Z,1351.82
2023-04-30T11:45:44.587Z,1291.72
2023-04-30T11:46:47.050Z,1299.32
2023-04-30T11:47:53.194Z,1246.82
2023-04-30T11:49:00.126Z,1205.55
2023-04-30T11:50:02.251Z,1248.93
2023-04-30T11:51:10.852Z,1236.00
2023-04-30T11:52:13.819Z,1281.53
2023-04-30T11:53:18.811Z,1248.72
2023-04-30T11:54:24.282Z,1150.47
2023-04-30T11:55:30.821Z,1151.75
2023-04-30T11:56:33.412Z,1119.25
2023-04-30T11:57:42.692Z,1166.93
2023-04-30T11:58:50.687Z,1123.30
2023-04-30T11:59:52.931Z,1152.57
2023-04-30T12:01:03.110Z,1160.13
2023-04-30T12:02:08.091Z,1113.68
2023-04-30T12:03:12.939Z,1086.65
2023-04-30T12:04:15.487Z,1121.97
2023-04-30T12:05:21.779Z,1190.38
2023-04-30T12:07:39.102Z,964.10
2023-04-30T12:08:44.903Z,989.17
2023-04-30T12:09:56.877Z,975.20
2023-04-30T12:11:01.948Z,981.72
2023-04-30T12:12:04.804Z,945.85
2023-04-30T12:13:09.513Z,1040.13
2023-04-30T12:14:15.457Z,1048.60
2023-04-30T12:15:19.673Z,992.42
2023-04-30T12:16:24.551Z,1053.45
2023-04-30T12:17:36.636Z,1150.05
2023-04-30T12:18:41.466Z,1166.30
2023-04-30T12:19:43.557Z,1068.68
2023-04-30T12:20:48.611Z,1157.63
2023-04-30T12:21:51.133Z,658.60
2023-04-30T12:22:56.091Z,372.33
2023-04-30T12:24:03.216Z,490.38
2023-04-30T12:25:14.300Z,459.58
2023-04-30T12:26:18.965Z,310.53
2023-04-30T12:27:22.446Z,365.83
2023-04-30T12:28:27.359Z,405.45
2023-04-30T12:29:29.665Z,486.10
2023-04-30T12:30:35.022Z,416.17
2023-04-30T12:31:38.170Z,423.77
2023-04-30T12:32:44.613Z,520.92
2023-04-30T12:33:55.038Z,386.40
2023-04-30T12:35:02.030Z,372.83
2023-04-30T12:38:11.144Z,384.90
2023-04-30T12:39:17.595Z,287.48
2023-04-30T12:40:27.569Z,385.70
2023-04-30T12:41:33.178Z,397.95
2023-04-30T12:42:38.661Z,407.30
2023-04-30T12:43:43.403Z,487.83
2023-04-30T12:44:45.693Z,474.88
2023-04-30T12:45:54.584Z,494.48
2023-04-30T12:47:00.781Z,739.67
2023-04-30T12:48:05.519Z,677.22
2023-04-30T12:49:07.593Z,637.28
2023-04-30T12:50:14.264Z,660.60
2023-04-30T12:51:20.368Z,376.23
2023-04-30T12:52:27.602Z,397.70
2023-04-30T12:53:33.353Z,494.45
2023-04-30T12:54:39.228Z,491.80
2023-04-30T12:55:43.933Z,435.33
2023-04-30T12:57:01.461Z,434.30
2023-04-30T12:58:05.988Z,700.90
2023-04-30T12:59:19.493Z,769.17
2023-04-30T13:00:24.211Z,394.42
2023-04-30T13:01:29.086Z,300.90
2023-04-30T13:02:34.202Z,356.17
2023-04-30T13:03:36.573Z,374.70
2023-04-30T13:04:42.099Z,430.00
2023-04-30T13:05:48.900Z,330.27
2023-04-30T13:06:53.777Z,472.33
2023-04-30T13:08:02.335Z,1316.53
2023-04-30T13:09:07.339Z,1252.80
2023-04-30T13:10:10.594Z,1277.45
2023-04-30T13:11:17.843Z,1243.53
2023-04-30T13:12:23.144Z,1246.90
2023-04-30T13:13:25.295Z,1183.43
2023-04-30T13:14:30.123Z,1263.30
2023-04-30T13:15:32.473Z,1249.13
2023-04-30T13:16:39.402Z,1277.38
2023-04-30T13:17:44.862Z,1493.47
2023-04-30T13:18:47.292Z,1261.78
2023-04-30T13:19:51.985Z,1292.72
2023-04-30T13:20:54.286Z,1392.65
2023-04-30T13:21:59.871Z,1233.18
2023-04-30T13:23:02.002Z,1228.50
2023-04-30T13:24:07.114Z,1268.88
2023-04-30T13:25:12.312Z,1194.13
2023-04-30T13:26:19.683Z,1216.03
2023-04-30T13:27:24.796Z,1238.00
2023-04-30T13:28:29.518Z,1262.68
2023-04-30T13:29:34.072Z,1292.85
2023-04-30T13:30:39.334Z,1302.95
2023-04-30T13:31:42.581Z,1305.90
2023-04-30T13:32:47.871Z,1310.10
2023-04-30T13:33:50.409Z,1311.88
2023-04-30T13:34:56.239Z,1305.63
2023-04-30T13:35:58.352Z,263.52
2023-04-30T13:37:03.146Z,313.58
2023-04-30T13:38:06.597Z,342.25
2023-04-30T13:39:11.953Z,340.00
2023-04-30T13:40:16.936Z,369.15
2023-04-30T13:41:24.339Z,401.00
2023-04-30T13:42:27.268Z,357.55
2023-04-30T13:43:32.075Z,298.15
2023-04-30T13:44:36.888Z,377.67